sensor_id;sensor_type;location;lat;lon;timestamp;P1;durP1;ratioP1;P2;durP2;ratioP2
19816;SDS011;68323;49.394;8.434;2023-07-29T00:00:45;11.00;;;4.93;;
19816;SDS011;68323;49.394;8.434;2023-07-29T00:03:11;6.00;;;3.93;;
19816;SDS011;68323;49.394;8.434;2023-07-29T00:05:37;5.87;;;3.77;;
19816;SDS011;68323;49.394;8.434;2023-07-29T00:08:03;6.77;;;3.77;;
19816;SDS011;68323;49.394;8.434;2023-07-29T00:10:30;6.63;;;3.50;;
19816;SDS011;68323;49.394;8.434;2023-07-29T00:12:57;6.60;;;3.30;;
19816;SDS011;68323;49.394;8.434;2023-07-29T00:15:23;3.90;;;3.17;;
19816;SDS011;68323;49.394;8.434;2023-07-29T00:17:48;3.40;;;2.90;;
19816;SDS011;68323;49.394;8.434;2023-07-29T00:20:14;3.40;;;3.10;;
19816;SDS011;68323;49.394;8.434;2023-07-29T00:22:40;6.00;;;3.10;;
19816;SDS011;68323;49.394;8.434;2023-07-29T00:25:06;5.13;;;3.10;;
19816;SDS011;68323;49.394;8.434;2023-07-29T00:27:31;6.43;;;2.67;;
19816;SDS011;68323;49.394;8.434;2023-07-29T00:29:57;3.80;;;2.80;;
19816;SDS011;68323;49.394;8.434;2023-07-29T00:32:22;6.47;;;2.90;;
19816;SDS011;68323;49.394;8.434;2023-07-29T00:34:48;4.77;;;2.90;;
19816;SDS011;68323;49.394;8.434;2023-07-29T00:37:13;3.13;;;2.83;;
19816;SDS011;68323;49.394;8.434;2023-07-29T00:39:39;5.10;;;2.73;;
19816;SDS011;68323;49.394;8.434;2023-07-29T00:42:05;3.73;;;2.70;;
19816;SDS011;68323;49.394;8.434;2023-07-29T00:44:31;4.00;;;2.73;;
19816;SDS011;68323;49.394;8.434;2023-07-29T00:46:57;5.03;;;2.60;;
19816;SDS011;68323;49.394;8.434;2023-07-29T00:49:25;5.60;;;2.50;;
19816;SDS011;68323;49.394;8.434;2023-07-29T00:51:51;5.93;;;2.47;;
19816;SDS011;68323;49.394;8.434;2023-07-29T00:54:16;4.03;;;2.20;;
19816;SDS011;68323;49.394;8.434;2023-07-29T00:56:42;3.60;;;2.00;;
19816;SDS011;68323;49.394;8.434;2023-07-29T00:59:08;3.93;;;2.27;;
19816;SDS011;68323;49.394;8.434;2023-07-29T01:01:33;2.27;;;2.07;;
19816;SDS011;68323;49.394;8.434;2023-07-29T01:03:59;2.60;;;2.07;;
19816;SDS011;68323;49.394;8.434;2023-07-29T01:12:24;3.33;;;2.10;;
19816;SDS011;68323;49.394;8.434;2023-07-29T01:17:42;6.33;;;2.33;;
19816;SDS011;68323;49.394;8.434;2023-07-29T01:20:11;4.47;;;2.30;;
19816;SDS011;68323;49.394;8.434;2023-07-29T01:22:40;5.20;;;2.10;;
19816;SDS011;68323;49.394;8.434;2023-07-29T01:25:06;3.53;;;2.40;;
19816;SDS011;68323;49.394;8.434;2023-07-29T01:27:32;5.07;;;2.37;;
19816;SDS011;68323;49.394;8.434;2023-07-29T01:29:58;4.80;;;2.33;;
19816;SDS011;68323;49.394;8.434;2023-07-29T01:33:13;3.60;;;2.30;;
19816;SDS011;68323;49.394;8.434;2023-07-29T01:35:22;4.40;;;2.20;;
19816;SDS011;68323;49.394;8.434;2023-07-29T01:37:50;4.60;;;2.83;;
19816;SDS011;68323;49.394;8.434;2023-07-29T01:40:19;3.67;;;2.53;;
19816;SDS011;68323;49.394;8.434;2023-07-29T01:42:51;3.13;;;2.70;;
19816;SDS011;68323;49.394;8.434;2023-07-29T01:45:17;5.47;;;3.57;;
19816;SDS011;68323;49.394;8.434;2023-07-29T01:47:43;5.40;;;2.60;;
19816;SDS011;68323;49.394;8.434;2023-07-29T01:50:08;4.97;;;2.37;;
19816;SDS011;68323;49.394;8.434;2023-07-29T01:52:34;3.47;;;2.30;;
19816;SDS011;68323;49.394;8.434;2023-07-29T01:55:00;4.07;;;2.20;;
19816;SDS011;68323;49.394;8.434;2023-07-29T01:57:26;4.57;;;2.60;;
19816;SDS011;68323;49.394;8.434;2023-07-29T01:59:52;4.30;;;2.60;;
19816;SDS011;68323;49.394;8.434;2023-07-29T02:02:18;4.37;;;2.30;;
19816;SDS011;68323;49.394;8.434;2023-07-29T02:04:43;3.23;;;2.50;;
19816;SDS011;68323;49.394;8.434;2023-07-29T02:07:10;3.20;;;2.47;;
19816;SDS011;68323;49.394;8.434;2023-07-29T02:09:35;4.27;;;2.37;;
19816;SDS011;68323;49.394;8.434;2023-07-29T02:12:01;4.00;;;2.40;;
19816;SDS011;68323;49.394;8.434;2023-07-29T02:14:27;5.03;;;2.77;;
19816;SDS011;68323;49.394;8.434;2023-07-29T02:16:53;3.90;;;2.40;;
19816;SDS011;68323;49.394;8.434;2023-07-29T02:19:18;3.57;;;2.40;;
19816;SDS011;68323;49.394;8.434;2023-07-29T02:21:44;5.67;;;2.60;;
19816;SDS011;68323;49.394;8.434;2023-07-29T02:24:10;3.17;;;2.10;;
19816;SDS011;68323;49.394;8.434;2023-07-29T02:26:35;4.47;;;2.40;;
19816;SDS011;68323;49.394;8.434;2023-07-29T02:29:01;4.07;;;2.40;;
19816;SDS011;68323;49.394;8.434;2023-07-29T02:31:26;3.73;;;2.37;;
19816;SDS011;68323;49.394;8.434;2023-07-29T02:33:52;8.20;;;2.60;;
19816;SDS011;68323;49.394;8.434;2023-07-29T02:36:18;2.90;;;2.53;;
19816;SDS011;68323;49.394;8.434;2023-07-29T02:38:43;2.70;;;2.43;;
19816;SDS011;68323;49.394;8.434;2023-07-29T02:41:09;5.17;;;2.33;;
19816;SDS011;68323;49.394;8.434;2023-07-29T02:43:37;3.43;;;2.17;;
19816;SDS011;68323;49.394;8.434;2023-07-29T02:46:03;5.47;;;2.53;;
19816;SDS011;68323;49.394;8.434;2023-07-29T02:48:29;7.50;;;2.20;;
19816;SDS011;68323;49.394;8.434;2023-07-29T02:50:55;3.93;;;2.43;;
19816;SDS011;68323;49.394;8.434;2023-07-29T02:53:21;4.33;;;2.43;;
19816;SDS011;68323;49.394;8.434;2023-07-29T02:55:47;3.60;;;2.40;;
19816;SDS011;68323;49.394;8.434;2023-07-29T02:58:13;3.83;;;2.20;;
19816;SDS011;68323;49.394;8.434;2023-07-29T03:00:39;6.00;;;2.60;;
19816;SDS011;68323;49.394;8.434;2023-07-29T03:03:07;5.93;;;2.60;;
19816;SDS011;68323;49.394;8.434;2023-07-29T03:05:33;3.83;;;2.70;;
19816;SDS011;68323;49.394;8.434;2023-07-29T03:07:58;4.63;;;2.73;;
19816;SDS011;68323;49.394;8.434;2023-07-29T03:10:24;4.10;;;2.63;;
19816;SDS011;68323;49.394;8.434;2023-07-29T03:12:50;5.00;;;2.87;;
19816;SDS011;68323;49.394;8.434;2023-07-29T03:15:15;5.10;;;2.80;;
19816;SDS011;68323;49.394;8.434;2023-07-29T03:17:41;5.00;;;2.80;;
19816;SDS011;68323;49.394;8.434;2023-07-29T03:20:07;6.57;;;3.00;;
19816;SDS011;68323;49.394;8.434;2023-07-29T03:22:33;4.80;;;2.90;;
19816;SDS011;68323;49.394;8.434;2023-07-29T03:24:58;5.73;;;3.07;;
19816;SDS011;68323;49.394;8.434;2023-07-29T03:27:24;4.27;;;2.87;;
19816;SDS011;68323;49.394;8.434;2023-07-29T03:29:49;4.47;;;2.70;;
19816;SDS011;68323;49.394;8.434;2023-07-29T03:32:15;5.00;;;2.50;;
19816;SDS011;68323;49.394;8.434;2023-07-29T03:34:41;4.07;;;2.77;;
19816;SDS011;68323;49.394;8.434;2023-07-29T03:37:06;5.30;;;2.67;;
19816;SDS011;68323;49.394;8.434;2023-07-29T03:39:32;4.20;;;2.70;;
19816;SDS011;68323;49.394;8.434;2023-07-29T03:41:57;4.83;;;2.97;;
19816;SDS011;68323;49.394;8.434;2023-07-29T03:44:23;4.30;;;2.70;;
19816;SDS011;68323;49.394;8.434;2023-07-29T03:46:48;4.90;;;2.60;;
19816;SDS011;68323;49.394;8.434;2023-07-29T03:49:14;5.27;;;2.60;;
19816;SDS011;68323;49.394;8.434;2023-07-29T03:51:40;5.10;;;2.70;;
19816;SDS011;68323;49.394;8.434;2023-07-29T03:54:06;4.73;;;2.93;;
19816;SDS011;68323;49.394;8.434;2023-07-29T03:56:31;5.80;;;2.73;;
19816;SDS011;68323;49.394;8.434;2023-07-29T03:59:03;3.57;;;2.70;;
19816;SDS011;68323;49.394;8.434;2023-07-29T04:01:30;4.50;;;3.13;;
19816;SDS011;68323;49.394;8.434;2023-07-29T04:03:56;3.77;;;2.90;;
19816;SDS011;68323;49.394;8.434;2023-07-29T04:06:22;5.63;;;2.97;;
19816;SDS011;68323;49.394;8.434;2023-07-29T04:08:48;6.67;;;3.20;;
19816;SDS011;68323;49.394;8.434;2023-07-29T04:11:14;4.03;;;2.90;;
19816;SDS011;68323;49.394;8.434;2023-07-29T04:13:39;3.90;;;3.00;;
19816;SDS011;68323;49.394;8.434;2023-07-29T04:16:05;4.97;;;3.00;;
19816;SDS011;68323;49.394;8.434;2023-07-29T04:18:31;4.73;;;3.00;;
19816;SDS011;68323;49.394;8.434;2023-07-29T04:20:57;5.03;;;3.47;;
19816;SDS011;68323;49.394;8.434;2023-07-29T04:23:22;6.43;;;3.20;;
19816;SDS011;68323;49.394;8.434;2023-07-29T04:25:48;8.23;;;3.10;;
19816;SDS011;68323;49.394;8.434;2023-07-29T04:28:14;5.63;;;3.30;;
19816;SDS011;68323;49.394;8.434;2023-07-29T04:30:40;5.67;;;3.17;;
19816;SDS011;68323;49.394;8.434;2023-07-29T04:33:06;6.60;;;3.00;;
19816;SDS011;68323;49.394;8.434;2023-07-29T04:35:31;8.17;;;3.40;;
19816;SDS011;68323;49.394;8.434;2023-07-29T04:37:57;8.30;;;3.27;;
19816;SDS011;68323;49.394;8.434;2023-07-29T04:40:22;5.77;;;3.57;;
19816;SDS011;68323;49.394;8.434;2023-07-29T04:42:48;5.83;;;3.43;;
19816;SDS011;68323;49.394;8.434;2023-07-29T04:45:14;5.87;;;3.80;;
19816;SDS011;68323;49.394;8.434;2023-07-29T04:47:41;6.67;;;4.00;;
19816;SDS011;68323;49.394;8.434;2023-07-29T04:50:06;7.17;;;4.53;;
19816;SDS011;68323;49.394;8.434;2023-07-29T04:52:32;5.80;;;4.40;;
19816;SDS011;68323;49.394;8.434;2023-07-29T04:54:58;8.20;;;5.00;;
19816;SDS011;68323;49.394;8.434;2023-07-29T04:57:23;7.40;;;4.37;;
19816;SDS011;68323;49.394;8.434;2023-07-29T04:59:49;6.57;;;4.50;;
19816;SDS011;68323;49.394;8.434;2023-07-29T05:02:14;12.43;;;5.27;;
19816;SDS011;68323;49.394;8.434;2023-07-29T05:04:40;13.00;;;5.13;;
19816;SDS011;68323;49.394;8.434;2023-07-29T05:07:06;9.30;;;4.60;;
19816;SDS011;68323;49.394;8.434;2023-07-29T05:09:31;10.67;;;4.80;;
19816;SDS011;68323;49.394;8.434;2023-07-29T05:11:57;8.10;;;4.30;;
19816;SDS011;68323;49.394;8.434;2023-07-29T05:14:22;10.93;;;4.60;;
19816;SDS011;68323;49.394;8.434;2023-07-29T05:16:48;8.87;;;4.37;;
19816;SDS011;68323;49.394;8.434;2023-07-29T05:19:14;9.90;;;3.87;;
19816;SDS011;68323;49.394;8.434;2023-07-29T05:21:40;6.57;;;3.53;;
19816;SDS011;68323;49.394;8.434;2023-07-29T05:24:05;6.10;;;3.30;;
19816;SDS011;68323;49.394;8.434;2023-07-29T05:26:31;5.13;;;3.30;;
19816;SDS011;68323;49.394;8.434;2023-07-29T05:28:57;7.03;;;3.20;;
19816;SDS011;68323;49.394;8.434;2023-07-29T05:31:22;4.80;;;3.10;;
19816;SDS011;68323;49.394;8.434;2023-07-29T05:33:48;4.53;;;3.43;;
19816;SDS011;68323;49.394;8.434;2023-07-29T05:36:13;6.43;;;3.90;;
19816;SDS011;68323;49.394;8.434;2023-07-29T05:38:39;6.03;;;3.73;;
19816;SDS011;68323;49.394;8.434;2023-07-29T05:41:04;6.60;;;4.10;;
19816;SDS011;68323;49.394;8.434;2023-07-29T05:43:30;8.50;;;4.13;;
19816;SDS011;68323;49.394;8.434;2023-07-29T05:45:55;6.97;;;4.50;;
19816;SDS011;68323;49.394;8.434;2023-07-29T05:48:21;8.63;;;4.13;;
19816;SDS011;68323;49.394;8.434;2023-07-29T05:50:47;8.13;;;4.40;;
19816;SDS011;68323;49.394;8.434;2023-07-29T05:53:13;6.20;;;4.50;;
19816;SDS011;68323;49.394;8.434;2023-07-29T05:55:39;6.47;;;4.57;;
19816;SDS011;68323;49.394;8.434;2023-07-29T05:58:04;5.43;;;3.97;;
19816;SDS011;68323;49.394;8.434;2023-07-29T06:00:30;5.23;;;3.97;;
19816;SDS011;68323;49.394;8.434;2023-07-29T06:02:56;6.37;;;3.90;;
19816;SDS011;68323;49.394;8.434;2023-07-29T06:05:22;4.40;;;3.30;;
19816;SDS011;68323;49.394;8.434;2023-07-29T06:07:47;3.87;;;3.13;;
19816;SDS011;68323;49.394;8.434;2023-07-29T06:10:14;6.73;;;3.37;;
19816;SDS011;68323;49.394;8.434;2023-07-29T06:12:44;6.43;;;2.93;;
19816;SDS011;68323;49.394;8.434;2023-07-29T06:15:10;6.17;;;2.97;;
19816;SDS011;68323;49.394;8.434;2023-07-29T06:17:35;5.77;;;3.27;;
19816;SDS011;68323;49.394;8.434;2023-07-29T06:20:01;7.03;;;3.30;;
19816;SDS011;68323;49.394;8.434;2023-07-29T06:22:27;5.60;;;3.40;;
19816;SDS011;68323;49.394;8.434;2023-07-29T06:24:53;6.60;;;3.17;;
19816;SDS011;68323;49.394;8.434;2023-07-29T06:27:18;4.07;;;3.17;;
19816;SDS011;68323;49.394;8.434;2023-07-29T06:29:44;5.53;;;3.20;;
19816;SDS011;68323;49.394;8.434;2023-07-29T06:32:09;4.23;;;3.17;;
19816;SDS011;68323;49.394;8.434;2023-07-29T06:34:35;5.40;;;3.37;;
19816;SDS011;68323;49.394;8.434;2023-07-29T06:37:00;5.93;;;3.30;;
19816;SDS011;68323;49.394;8.434;2023-07-29T06:39:26;4.73;;;3.00;;
19816;SDS011;68323;49.394;8.434;2023-07-29T06:41:52;7.10;;;2.80;;
19816;SDS011;68323;49.394;8.434;2023-07-29T06:44:17;37.07;;;3.73;;
19816;SDS011;68323;49.394;8.434;2023-07-29T06:46:43;5.70;;;2.93;;
19816;SDS011;68323;49.394;8.434;2023-07-29T06:49:08;4.83;;;3.20;;
19816;SDS011;68323;49.394;8.434;2023-07-29T06:51:34;3.70;;;2.80;;
19816;SDS011;68323;49.394;8.434;2023-07-29T06:54:01;5.47;;;3.00;;
19816;SDS011;68323;49.394;8.434;2023-07-29T06:56:27;4.07;;;2.70;;
19816;SDS011;68323;49.394;8.434;2023-07-29T06:58:52;6.53;;;2.97;;
19816;SDS011;68323;49.394;8.434;2023-07-29T07:01:18;7.03;;;2.95;;
19816;SDS011;68323;49.394;8.434;2023-07-29T07:03:43;4.90;;;2.97;;
19816;SDS011;68323;49.394;8.434;2023-07-29T07:06:09;3.58;;;2.63;;
19816;SDS011;68323;49.394;8.434;2023-07-29T07:08:35;4.32;;;2.60;;
19816;SDS011;68323;49.394;8.434;2023-07-29T07:11:00;4.45;;;2.70;;
19816;SDS011;68323;49.394;8.434;2023-07-29T07:13:26;3.60;;;2.60;;
19816;SDS011;68323;49.394;8.434;2023-07-29T07:15:54;4.13;;;2.22;;
19816;SDS011;68323;49.394;8.434;2023-07-29T07:18:20;5.65;;;2.33;;
19816;SDS011;68323;49.394;8.434;2023-07-29T07:20:48;3.17;;;2.10;;
19816;SDS011;68323;49.394;8.434;2023-07-29T07:23:14;5.25;;;1.92;;
19816;SDS011;68323;49.394;8.434;2023-07-29T07:25:40;4.07;;;2.13;;
19816;SDS011;68323;49.394;8.434;2023-07-29T07:28:07;4.07;;;2.13;;
19816;SDS011;68323;49.394;8.434;2023-07-29T07:30:33;3.40;;;1.73;;
19816;SDS011;68323;49.394;8.434;2023-07-29T07:32:58;2.53;;;2.05;;
19816;SDS011;68323;49.394;8.434;2023-07-29T07:35:24;2.28;;;1.73;;
19816;SDS011;68323;49.394;8.434;2023-07-29T07:37:49;3.33;;;1.83;;
19816;SDS011;68323;49.394;8.434;2023-07-29T07:40:15;5.72;;;1.80;;
19816;SDS011;68323;49.394;8.434;2023-07-29T07:42:41;4.30;;;2.08;;
19816;SDS011;68323;49.394;8.434;2023-07-29T07:45:06;1.52;;;1.40;;
19816;SDS011;68323;49.394;8.434;2023-07-29T07:47:32;1.88;;;1.60;;
19816;SDS011;68323;49.394;8.434;2023-07-29T07:49:57;2.15;;;1.50;;
19816;SDS011;68323;49.394;8.434;2023-07-29T07:52:23;3.15;;;1.63;;
19816;SDS011;68323;49.394;8.434;2023-07-29T07:54:52;3.47;;;1.35;;
19816;SDS011;68323;49.394;8.434;2023-07-29T07:57:18;3.35;;;1.48;;
19816;SDS011;68323;49.394;8.434;2023-07-29T07:59:45;2.58;;;1.67;;
19816;SDS011;68323;49.394;8.434;2023-07-29T08:02:10;3.47;;;1.90;;
19816;SDS011;68323;49.394;8.434;2023-07-29T08:04:36;2.42;;;1.73;;
19816;SDS011;68323;49.394;8.434;2023-07-29T08:07:01;1.90;;;1.45;;
19816;SDS011;68323;49.394;8.434;2023-07-29T08:09:27;2.13;;;1.60;;
19816;SDS011;68323;49.394;8.434;2023-07-29T08:11:53;4.65;;;1.70;;
19816;SDS011;68323;49.394;8.434;2023-07-29T08:14:18;3.97;;;1.80;;
19816;SDS011;68323;49.394;8.434;2023-07-29T08:16:44;2.47;;;1.67;;
19816;SDS011;68323;49.394;8.434;2023-07-29T08:19:09;3.78;;;1.77;;
19816;SDS011;68323;49.394;8.434;2023-07-29T08:21:35;3.45;;;1.75;;
19816;SDS011;68323;49.394;8.434;2023-07-29T08:24:01;3.10;;;1.60;;
19816;SDS011;68323;49.394;8.434;2023-07-29T08:26:27;2.67;;;1.63;;
19816;SDS011;68323;49.394;8.434;2023-07-29T08:28:52;2.67;;;1.50;;
19816;SDS011;68323;49.394;8.434;2023-07-29T08:31:18;4.18;;;1.70;;
19816;SDS011;68323;49.394;8.434;2023-07-29T08:33:43;2.10;;;1.75;;
19816;SDS011;68323;49.394;8.434;2023-07-29T08:36:09;5.13;;;2.20;;
19816;SDS011;68323;49.394;8.434;2023-07-29T08:38:34;8.85;;;2.78;;
19816;SDS011;68323;49.394;8.434;2023-07-29T08:46:51;4.20;;;2.00;;
19816;SDS011;68323;49.394;8.434;2023-07-29T08:49:18;4.80;;;2.03;;
19816;SDS011;68323;49.394;8.434;2023-07-29T08:51:45;2.88;;;2.08;;
19816;SDS011;68323;49.394;8.434;2023-07-29T08:54:13;4.43;;;2.20;;
19816;SDS011;68323;49.394;8.434;2023-07-29T08:56:40;4.68;;;2.50;;
19816;SDS011;68323;49.394;8.434;2023-07-29T08:59:07;4.45;;;1.85;;
19816;SDS011;68323;49.394;8.434;2023-07-29T09:01:33;2.60;;;1.60;;
19816;SDS011;68323;49.394;8.434;2023-07-29T09:03:59;4.15;;;2.10;;
19816;SDS011;68323;49.394;8.434;2023-07-29T09:06:25;3.72;;;1.75;;
19816;SDS011;68323;49.394;8.434;2023-07-29T09:08:53;5.32;;;1.65;;
19816;SDS011;68323;49.394;8.434;2023-07-29T09:11:21;1.85;;;1.25;;
19816;SDS011;68323;49.394;8.434;2023-07-29T09:13:47;1.45;;;1.23;;
19816;SDS011;68323;49.394;8.434;2023-07-29T09:16:13;3.38;;;1.20;;
19816;SDS011;68323;49.394;8.434;2023-07-29T09:18:39;2.25;;;1.00;;
19816;SDS011;68323;49.394;8.434;2023-07-29T09:21:05;1.77;;;1.20;;
19816;SDS011;68323;49.394;8.434;2023-07-29T09:23:40;6.45;;;1.85;;
19816;SDS011;68323;49.394;8.434;2023-07-29T09:26:06;10.13;;;1.83;;
19816;SDS011;68323;49.394;8.434;2023-07-29T09:28:36;1.30;;;1.10;;
19816;SDS011;68323;49.394;8.434;2023-07-29T09:31:03;5.80;;;1.15;;
19816;SDS011;68323;49.394;8.434;2023-07-29T09:33:32;2.88;;;1.23;;
19816;SDS011;68323;49.394;8.434;2023-07-29T09:36:00;4.20;;;0.98;;
19816;SDS011;68323;49.394;8.434;2023-07-29T09:38:26;3.08;;;1.25;;
19816;SDS011;68323;49.394;8.434;2023-07-29T09:40:56;2.28;;;1.33;;
19816;SDS011;68323;49.394;8.434;2023-07-29T09:43:30;1.48;;;1.10;;
19816;SDS011;68323;49.394;8.434;2023-07-29T09:46:00;3.88;;;1.58;;
19816;SDS011;68323;49.394;8.434;2023-07-29T09:48:26;2.35;;;1.38;;
19816;SDS011;68323;49.394;8.434;2023-07-29T09:50:54;1.38;;;1.17;;
19816;SDS011;68323;49.394;8.434;2023-07-29T09:53:20;1.60;;;1.33;;
19816;SDS011;68323;49.394;8.434;2023-07-29T09:55:46;2.95;;;1.50;;
19816;SDS011;68323;49.394;8.434;2023-07-29T09:58:25;1.60;;;1.50;;
19816;SDS011;68323;49.394;8.434;2023-07-29T10:00:51;1.58;;;1.35;;
19816;SDS011;68323;49.394;8.434;2023-07-29T10:03:18;1.50;;;1.40;;
19816;SDS011;68323;49.394;8.434;2023-07-29T10:05:45;1.52;;;1.40;;
19816;SDS011;68323;49.394;8.434;2023-07-29T10:08:11;8.10;;;1.50;;
19816;SDS011;68323;49.394;8.434;2023-07-29T10:10:38;1.92;;;1.60;;
19816;SDS011;68323;49.394;8.434;2023-07-29T10:13:06;2.72;;;1.40;;
19816;SDS011;68323;49.394;8.434;2023-07-29T10:15:31;1.92;;;1.35;;
19816;SDS011;68323;49.394;8.434;2023-07-29T10:17:57;1.50;;;1.40;;
19816;SDS011;68323;49.394;8.434;2023-07-29T10:20:24;3.60;;;1.75;;
19816;SDS011;68323;49.394;8.434;2023-07-29T10:22:50;1.50;;;1.40;;
19816;SDS011;68323;49.394;8.434;2023-07-29T10:25:21;3.92;;;1.23;;
19816;SDS011;68323;49.394;8.434;2023-07-29T10:27:49;2.65;;;1.42;;
19816;SDS011;68323;49.394;8.434;2023-07-29T10:30:20;1.77;;;1.38;;
19816;SDS011;68323;49.394;8.434;2023-07-29T10:32:46;1.67;;;1.48;;
19816;SDS011;68323;49.394;8.434;2023-07-29T10:35:13;2.20;;;1.33;;
19816;SDS011;68323;49.394;8.434;2023-07-29T10:37:40;4.63;;;1.30;;
19816;SDS011;68323;49.394;8.434;2023-07-29T10:40:07;4.55;;;1.58;;
19816;SDS011;68323;49.394;8.434;2023-07-29T10:42:34;2.53;;;1.67;;
19816;SDS011;68323;49.394;8.434;2023-07-29T10:45:00;1.73;;;1.60;;
19816;SDS011;68323;49.394;8.434;2023-07-29T10:47:43;2.17;;;1.20;;
19816;SDS011;68323;49.394;8.434;2023-07-29T10:50:16;2.47;;;1.60;;
19816;SDS011;68323;49.394;8.434;2023-07-29T10:52:52;2.00;;;1.60;;
19816;SDS011;68323;49.394;8.434;2023-07-29T10:58:16;3.65;;;1.20;;
19816;SDS011;68323;49.394;8.434;2023-07-29T11:00:45;3.70;;;1.73;;
19816;SDS011;68323;49.394;8.434;2023-07-29T11:03:11;1.77;;;1.20;;
19816;SDS011;68323;49.394;8.434;2023-07-29T11:05:42;3.28;;;1.52;;
19816;SDS011;68323;49.394;8.434;2023-07-29T11:10:44;1.60;;;1.50;;
19816;SDS011;68323;49.394;8.434;2023-07-29T11:13:23;1.70;;;1.40;;
19816;SDS011;68323;49.394;8.434;2023-07-29T11:15:51;1.38;;;1.27;;
19816;SDS011;68323;49.394;8.434;2023-07-29T11:18:18;2.05;;;1.20;;
19816;SDS011;68323;49.394;8.434;2023-07-29T11:20:45;1.33;;;1.08;;
19816;SDS011;68323;49.394;8.434;2023-07-29T11:23:11;1.95;;;1.15;;
19816;SDS011;68323;49.394;8.434;2023-07-29T11:25:36;2.83;;;1.30;;
19816;SDS011;68323;49.394;8.434;2023-07-29T11:28:03;3.83;;;1.52;;
19816;SDS011;68323;49.394;8.434;2023-07-29T11:30:28;2.95;;;1.20;;
19816;SDS011;68323;49.394;8.434;2023-07-29T11:32:56;1.63;;;1.30;;
19816;SDS011;68323;49.394;8.434;2023-07-29T11:35:23;2.50;;;1.20;;
19816;SDS011;68323;49.394;8.434;2023-07-29T11:37:49;2.38;;;1.38;;
19816;SDS011;68323;49.394;8.434;2023-07-29T11:40:16;3.97;;;1.20;;
19816;SDS011;68323;49.394;8.434;2023-07-29T11:42:46;1.75;;;1.30;;
19816;SDS011;68323;49.394;8.434;2023-07-29T11:45:15;1.83;;;1.30;;
19816;SDS011;68323;49.394;8.434;2023-07-29T11:47:41;1.27;;;1.17;;
19816;SDS011;68323;49.394;8.434;2023-07-29T11:50:07;2.22;;;1.30;;
19816;SDS011;68323;49.394;8.434;2023-07-29T11:52:35;1.65;;;1.30;;
19816;SDS011;68323;49.394;8.434;2023-07-29T11:55:01;1.30;;;1.20;;
19816;SDS011;68323;49.394;8.434;2023-07-29T11:57:29;1.90;;;1.40;;
19816;SDS011;68323;49.394;8.434;2023-07-29T12:00:01;1.40;;;1.20;;
19816;SDS011;68323;49.394;8.434;2023-07-29T12:02:28;2.10;;;1.38;;
19816;SDS011;68323;49.394;8.434;2023-07-29T12:04:54;3.10;;;1.30;;
19816;SDS011;68323;49.394;8.434;2023-07-29T12:07:22;1.67;;;1.40;;
19816;SDS011;68323;49.394;8.434;2023-07-29T12:09:47;2.10;;;1.38;;
19816;SDS011;68323;49.394;8.434;2023-07-29T12:12:15;3.13;;;1.58;;
19816;SDS011;68323;49.394;8.434;2023-07-29T12:14:43;2.15;;;1.48;;
19816;SDS011;68323;49.394;8.434;2023-07-29T12:17:10;1.88;;;1.20;;
19816;SDS011;68323;49.394;8.434;2023-07-29T12:19:37;1.63;;;1.33;;
19816;SDS011;68323;49.394;8.434;2023-07-29T12:22:05;1.45;;;1.27;;
19816;SDS011;68323;49.394;8.434;2023-07-29T12:24:36;1.38;;;1.27;;
19816;SDS011;68323;49.394;8.434;2023-07-29T12:27:02;1.55;;;1.20;;
19816;SDS011;68323;49.394;8.434;2023-07-29T12:29:28;2.22;;;1.30;;
19816;SDS011;68323;49.394;8.434;2023-07-29T12:31:57;2.13;;;1.40;;
19816;SDS011;68323;49.394;8.434;2023-07-29T12:34:25;1.95;;;1.25;;
19816;SDS011;68323;49.394;8.434;2023-07-29T12:36:52;3.20;;;1.25;;
19816;SDS011;68323;49.394;8.434;2023-07-29T12:39:23;1.83;;;1.50;;
19816;SDS011;68323;49.394;8.434;2023-07-29T12:41:52;3.15;;;1.60;;
19816;SDS011;68323;49.394;8.434;2023-07-29T12:44:18;1.65;;;1.40;;
19816;SDS011;68323;49.394;8.434;2023-07-29T12:46:44;1.77;;;1.55;;
19816;SDS011;68323;49.394;8.434;2023-07-29T12:49:10;5.95;;;1.67;;
19816;SDS011;68323;49.394;8.434;2023-07-29T12:51:35;1.67;;;1.40;;
19816;SDS011;68323;49.394;8.434;2023-07-29T12:54:02;2.45;;;1.48;;
19816;SDS011;68323;49.394;8.434;2023-07-29T12:56:28;2.47;;;1.50;;
19816;SDS011;68323;49.394;8.434;2023-07-29T12:58:56;2.38;;;1.40;;
19816;SDS011;68323;49.394;8.434;2023-07-29T13:01:22;2.67;;;1.42;;
19816;SDS011;68323;49.394;8.434;2023-07-29T13:03:48;2.42;;;1.30;;
19816;SDS011;68323;49.394;8.434;2023-07-29T13:06:14;1.17;;;1.08;;
19816;SDS011;68323;49.394;8.434;2023-07-29T13:08:40;2.15;;;1.35;;
19816;SDS011;68323;49.394;8.434;2023-07-29T13:11:06;2.90;;;1.52;;
19816;SDS011;68323;49.394;8.434;2023-07-29T13:13:32;1.33;;;1.23;;
19816;SDS011;68323;49.394;8.434;2023-07-29T13:15:58;3.97;;;1.23;;
19816;SDS011;68323;49.394;8.434;2023-07-29T13:18:23;3.30;;;1.48;;
19816;SDS011;68323;49.394;8.434;2023-07-29T13:20:49;1.55;;;1.20;;
19816;SDS011;68323;49.394;8.434;2023-07-29T13:23:15;6.15;;;1.40;;
19816;SDS011;68323;49.394;8.434;2023-07-29T13:25:41;2.03;;;1.13;;
19816;SDS011;68323;49.394;8.434;2023-07-29T13:28:08;2.35;;;1.30;;
19816;SDS011;68323;49.394;8.434;2023-07-29T13:30:35;1.48;;;1.17;;
19816;SDS011;68323;49.394;8.434;2023-07-29T13:33:00;2.08;;;1.48;;
19816;SDS011;68323;49.394;8.434;2023-07-29T13:35:26;1.45;;;1.30;;
19816;SDS011;68323;49.394;8.434;2023-07-29T13:37:52;2.28;;;1.17;;
19816;SDS011;68323;49.394;8.434;2023-07-29T13:40:17;3.10;;;1.52;;
19816;SDS011;68323;49.394;8.434;2023-07-29T13:42:43;1.80;;;1.50;;
19816;SDS011;68323;49.394;8.434;2023-07-29T13:45:08;3.50;;;1.60;;
19816;SDS011;68323;49.394;8.434;2023-07-29T13:47:34;3.00;;;1.45;;
19816;SDS011;68323;49.394;8.434;2023-07-29T13:50:00;2.25;;;1.55;;
19816;SDS011;68323;49.394;8.434;2023-07-29T13:52:27;3.85;;;1.40;;
19816;SDS011;68323;49.394;8.434;2023-07-29T13:54:53;1.90;;;1.60;;
19816;SDS011;68323;49.394;8.434;2023-07-29T13:57:18;1.60;;;1.50;;
19816;SDS011;68323;49.394;8.434;2023-07-29T13:59:44;2.42;;;1.33;;
19816;SDS011;68323;49.394;8.434;2023-07-29T14:02:09;3.47;;;1.50;;
19816;SDS011;68323;49.394;8.434;2023-07-29T14:04:35;2.03;;;1.27;;
19816;SDS011;68323;49.394;8.434;2023-07-29T14:07:00;2.10;;;1.40;;
19816;SDS011;68323;49.394;8.434;2023-07-29T14:09:26;2.22;;;1.40;;
19816;SDS011;68323;49.394;8.434;2023-07-29T14:11:53;2.40;;;1.58;;
19816;SDS011;68323;49.394;8.434;2023-07-29T14:14:19;2.95;;;1.55;;
19816;SDS011;68323;49.394;8.434;2023-07-29T14:16:44;1.65;;;1.40;;
19816;SDS011;68323;49.394;8.434;2023-07-29T14:19:10;1.85;;;1.40;;
19816;SDS011;68323;49.394;8.434;2023-07-29T14:21:36;3.10;;;1.38;;
19816;SDS011;68323;49.394;8.434;2023-07-29T14:24:01;2.53;;;1.40;;
19816;SDS011;68323;49.394;8.434;2023-07-29T14:26:27;2.58;;;1.80;;
19816;SDS011;68323;49.394;8.434;2023-07-29T14:28:53;3.30;;;1.58;;
19816;SDS011;68323;49.394;8.434;2023-07-29T14:31:19;1.98;;;1.48;;
19816;SDS011;68323;49.394;8.434;2023-07-29T14:33:45;1.33;;;1.20;;
19816;SDS011;68323;49.394;8.434;2023-07-29T14:36:10;1.90;;;1.50;;
19816;SDS011;68323;49.394;8.434;2023-07-29T14:38:36;2.72;;;1.60;;
19816;SDS011;68323;49.394;8.434;2023-07-29T14:41:02;2.40;;;1.40;;
19816;SDS011;68323;49.394;8.434;2023-07-29T14:43:29;1.92;;;1.40;;
19816;SDS011;68323;49.394;8.434;2023-07-29T14:45:55;5.30;;;1.52;;
19816;SDS011;68323;49.394;8.434;2023-07-29T14:48:20;3.25;;;1.70;;
19816;SDS011;68323;49.394;8.434;2023-07-29T14:50:46;1.50;;;1.30;;
19816;SDS011;68323;49.394;8.434;2023-07-29T14:53:12;2.47;;;1.65;;
19816;SDS011;68323;49.394;8.434;2023-07-29T14:55:38;1.70;;;1.60;;
19816;SDS011;68323;49.394;8.434;2023-07-29T14:58:03;4.38;;;1.50;;
19816;SDS011;68323;49.394;8.434;2023-07-29T15:00:29;3.53;;;1.60;;
19816;SDS011;68323;49.394;8.434;2023-07-29T15:02:54;1.52;;;1.42;;